createdAt,value
2022-12-15T00:00:47.240Z,30.63
2022-12-15T00:03:53.002Z,32.95
2022-12-15T00:06:58.804Z,31.92
2022-12-15T00:10:04.560Z,34.80
2022-12-15T00:13:10.221Z,32.17
2022-12-15T00:16:15.949Z,29.10
2022-12-15T00:19:21.797Z,29.65
2022-12-15T00:22:27.614Z,33.47
2022-12-15T00:25:33.287Z,31.05
2022-12-15T00:28:39.086Z,28.70
2022-12-15T00:31:45.423Z,29.98
2022-12-15T00:34:51.224Z,31.30
2022-12-15T00:37:56.901Z,27.20
2022-12-15T00:40:43.961Z,29.17
2022-12-15T00:43:33.157Z,31.52
2022-12-15T00:46:39.212Z,32.17
2022-12-15T00:49:47.562Z,33.65
2022-12-15T00:52:53.760Z,33.13
2022-12-15T00:55:59.544Z,30.23
2022-12-15T00:59:05.524Z,28.98
2022-12-15T01:02:11.447Z,29.70
2022-12-15T01:05:17.070Z,29.10
2022-12-15T01:08:22.637Z,30.17
2022-12-15T01:11:28.222Z,29.15
2022-12-15T01:14:33.932Z,29.90
2022-12-15T01:17:39.849Z,30.40
2022-12-15T01:20:27.055Z,27.88
2022-12-15T01:23:14.205Z,37.20
2022-12-15T01:26:01.865Z,34.85
2022-12-15T01:28:49.114Z,31.92
2022-12-15T01:31:36.683Z,34.55
2022-12-15T01:34:23.793Z,33.13
2022-12-15T01:37:10.843Z,29.42
2022-12-15T01:40:16.686Z,33.33
2022-12-15T01:43:03.841Z,30.75
2022-12-15T01:45:57.903Z,28.40
2022-12-15T01:48:51.091Z,31.42
2022-12-15T01:51:42.390Z,29.05
2022-12-15T01:54:34.656Z,29.08
2022-12-15T01:57:32.478Z,33.40
2022-12-15T02:00:19.776Z,30.08
2022-12-15T02:03:07.880Z,33.28
2022-12-15T02:05:57.784Z,29.98
2022-12-15T02:08:47.935Z,31.52
2022-12-15T02:11:39.431Z,27.77
2022-12-15T02:14:52.760Z,30.85
2022-12-15T02:18:13.868Z,28.98
2022-12-15T02:21:17.849Z,31.05
2022-12-15T02:24:40.187Z,30.02
2022-12-15T02:27:50.544Z,30.30
2022-12-15T02:31:24.738Z,28.77
2022-12-15T02:34:29.694Z,26.77
2022-12-15T02:37:44.983Z,32.25
2022-12-15T02:40:37.611Z,26.10
2022-12-15T02:43:24.906Z,25.08
2022-12-15T02:46:47.481Z,29.05
2022-12-15T02:49:58.873Z,25.10
2022-12-15T02:52:57.911Z,27.15
2022-12-15T02:55:58.380Z,26.15
2022-12-15T02:58:51.514Z,28.25
2022-12-15T03:01:52.803Z,24.75
2022-12-15T03:04:42.774Z,24.02
2022-12-15T03:07:29.881Z,26.98
2022-12-15T03:10:17.596Z,28.27
2022-12-15T03:13:04.818Z,27.73
2022-12-15T03:15:52.773Z,28.08
2022-12-15T03:18:40.018Z,30.88
2022-12-15T03:21:27.568Z,28.45
2022-12-15T03:24:14.712Z,29.80
2022-12-15T03:27:01.827Z,27.58
2022-12-15T03:29:48.998Z,28.35
2022-12-15T03:32:35.988Z,29.92
2022-12-15T03:35:23.385Z,28.27
2022-12-15T03:38:10.490Z,29.15
2022-12-15T03:40:57.775Z,28.08
2022-12-15T03:43:46.284Z,27.73
2022-12-15T03:46:37.126Z,27.45
2022-12-15T03:49:24.199Z,29.02
2022-12-15T03:52:11.451Z,27.85
2022-12-15T03:54:58.763Z,27.70
2022-12-15T03:57:45.952Z,28.13
2022-12-15T04:00:33.088Z,27.60
2022-12-15T04:03:20.396Z,28.92
2022-12-15T04:06:07.728Z,28.98
2022-12-15T04:08:54.841Z,26.48
2022-12-15T04:11:41.998Z,30.48
2022-12-15T04:14:30.075Z,32.25
2022-12-15T04:17:17.273Z,25.95
2022-12-15T04:20:11.733Z,23.77
2022-12-15T04:22:59.101Z,26.42
2022-12-15T04:26:04.850Z,28.80
2022-12-15T04:29:10.541Z,27.30
2022-12-15T04:32:16.267Z,25.67
2022-12-15T04:35:21.837Z,28.50
2022-12-15T04:38:27.544Z,28.65
2022-12-15T04:41:34.263Z,26.65
2022-12-15T04:44:39.928Z,27.15
2022-12-15T04:47:45.533Z,28.60
2022-12-15T04:50:51.183Z,27.10
2022-12-15T04:53:56.924Z,29.95
2022-12-15T04:57:02.543Z,30.05
2022-12-15T05:00:08.236Z,24.30
2022-12-15T05:03:18.342Z,26.73
2022-12-15T05:06:24.484Z,29.38
2022-12-15T05:09:30.243Z,28.73
2022-12-15T05:12:35.805Z,24.92
2022-12-15T05:15:41.645Z,27.58
2022-12-15T05:18:47.464Z,27.52
2022-12-15T05:21:53.006Z,26.05
2022-12-15T05:24:58.733Z,23.42
2022-12-15T05:28:04.508Z,24.77
2022-12-15T05:31:10.203Z,23.92
2022-12-15T05:34:04.491Z,26.27
2022-12-15T05:36:57.177Z,25.80
2022-12-15T05:39:44.200Z,29.25
2022-12-15T05:42:31.269Z,23.27
2022-12-15T05:45:18.456Z,24.58
2022-12-15T05:48:06.240Z,27.55
2022-12-15T05:50:53.445Z,25.52
2022-12-15T05:53:42.071Z,26.50
2022-12-15T05:56:29.746Z,24.10
2022-12-15T05:59:17.254Z,24.58
2022-12-15T06:02:04.659Z,25.00
2022-12-15T06:04:52.165Z,25.48
2022-12-15T06:07:39.384Z,24.70
2022-12-15T06:10:26.456Z,23.77
2022-12-15T06:13:13.531Z,22.95
2022-12-15T06:16:10.987Z,24.77
2022-12-15T06:19:00.656Z,24.88
2022-12-15T06:21:48.121Z,23.45
2022-12-15T06:24:35.621Z,22.48
2022-12-15T06:27:22.686Z,25.10
2022-12-15T06:30:10.362Z,24.98
2022-12-15T06:32:57.560Z,27.95
2022-12-15T06:35:45.138Z,26.95
2022-12-15T06:38:32.732Z,26.33
2022-12-15T06:41:21.909Z,27.85
2022-12-15T06:44:13.183Z,25.45
2022-12-15T06:47:00.355Z,24.92
2022-12-15T06:49:47.570Z,25.73
2022-12-15T06:52:34.655Z,26.27
2022-12-15T06:55:21.682Z,26.55
2022-12-15T06:58:08.835Z,27.67
2022-12-15T07:00:56.807Z,28.42
2022-12-15T07:03:45.130Z,28.25
2022-12-15T07:06:37.549Z,28.27
2022-12-15T07:09:26.151Z,27.38
2022-12-15T07:12:13.242Z,30.00
2022-12-15T07:15:00.361Z,29.80
2022-12-15T07:17:47.538Z,33.40
2022-12-15T07:20:34.794Z,32.33
2022-12-15T07:23:39.741Z,31.35
2022-12-15T07:26:30.371Z,28.98
2022-12-15T07:29:22.844Z,29.98
2022-12-15T07:32:11.482Z,27.45
2022-12-15T07:34:58.495Z,28.98
2022-12-15T07:37:45.619Z,31.95
2022-12-15T07:40:32.785Z,36.33
2022-12-15T07:43:21.474Z,35.72
2022-12-15T07:46:08.929Z,30.48
2022-12-15T07:48:56.127Z,37.20
2022-12-15T07:51:44.002Z,35.92
2022-12-15T07:54:31.288Z,30.15
2022-12-15T07:57:19.062Z,33.33
2022-12-15T08:00:07.022Z,36.20
2022-12-15T08:03:02.786Z,30.98
2022-12-15T08:05:50.184Z,29.73
2022-12-15T08:08:37.651Z,29.67
2022-12-15T08:11:25.950Z,30.08
2022-12-15T08:14:17.637Z,29.25
2022-12-15T08:17:05.913Z,33.92
2022-12-15T08:19:58.593Z,31.10
2022-12-15T08:22:46.136Z,26.88
2022-12-15T08:25:33.652Z,29.77
2022-12-15T08:28:20.972Z,27.77
2022-12-15T08:31:13.975Z,24.33
2022-12-15T08:34:02.377Z,24.50
2022-12-15T08:36:49.535Z,25.48
2022-12-15T08:39:37.176Z,25.55
2022-12-15T08:42:24.336Z,26.90
2022-12-15T08:45:14.190Z,26.67
2022-12-15T08:48:01.257Z,26.20
2022-12-15T08:50:48.417Z,25.70
2022-12-15T08:53:35.593Z,25.05
2022-12-15T08:56:24.507Z,26.20
2022-12-15T08:59:11.701Z,23.20
2022-12-15T09:01:59.399Z,24.10
2022-12-15T09:04:46.623Z,21.73
2022-12-15T09:07:34.325Z,21.80
2022-12-15T09:10:22.311Z,19.30
2022-12-15T09:13:09.488Z,22.70
2022-12-15T09:16:10.651Z,24.48
2022-12-15T09:19:02.421Z,25.15
2022-12-15T09:21:49.586Z,27.70
2022-12-15T09:24:37.453Z,30.38
2022-12-15T09:27:24.567Z,27.17
2022-12-15T09:30:12.108Z,26.67
2022-12-15T09:32:59.259Z,22.25
2022-12-15T09:35:54.476Z,27.50
2022-12-15T09:38:42.918Z,22.50
2022-12-15T09:41:32.798Z,24.60
2022-12-15T09:44:22.764Z,29.92
2022-12-15T09:47:30.605Z,22.80
2022-12-15T09:50:23.086Z,23.27
2022-12-15T09:53:36.656Z,23.75
2022-12-15T09:56:28.512Z,22.10
2022-12-15T09:59:30.762Z,20.88
2022-12-15T10:02:55.857Z,21.20
2022-12-15T10:06:16.237Z,20.52
2022-12-15T10:09:13.627Z,19.55
2022-12-15T10:12:07.031Z,20.27
2022-12-15T10:15:25.392Z,21.67
2022-12-15T10:18:25.367Z,20.52
2022-12-15T10:21:15.558Z,24.05
2022-12-15T10:24:17.644Z,22.05
2022-12-15T10:27:14.596Z,23.40
2022-12-15T10:30:09.289Z,21.15
2022-12-15T10:33:16.723Z,20.77
2022-12-15T10:36:15.594Z,20.30
2022-12-15T10:39:03.196Z,21.00
2022-12-15T10:42:25.928Z,20.40
2022-12-15T10:45:37.858Z,19.95
2022-12-15T10:48:25.292Z,18.92
2022-12-15T10:51:20.531Z,19.55
2022-12-15T10:54:15.697Z,20.77
2022-12-15T10:57:30.391Z,18.90
2022-12-15T11:00:19.375Z,19.77
2022-12-15T11:03:26.353Z,21.23
2022-12-15T11:06:20.354Z,21.95
2022-12-15T11:09:25.718Z,21.77
2022-12-15T11:12:40.290Z,21.90
2022-12-15T11:15:39.101Z,21.13
2022-12-15T11:18:29.180Z,19.65
2022-12-15T11:21:34.984Z,22.38
2022-12-15T11:24:40.457Z,22.65
2022-12-15T11:27:38.888Z,24.23
2022-12-15T11:30:39.794Z,22.20
2022-12-15T11:33:27.225Z,22.38
2022-12-15T11:36:22.397Z,24.15
2022-12-15T11:39:41.760Z,23.10
2022-12-15T11:42:35.778Z,21.42
2022-12-15T11:45:36.902Z,23.50
2022-12-15T11:48:52.328Z,19.33
2022-12-15T11:52:13.852Z,20.67
2022-12-15T11:58:10.327Z,18.85
2022-12-15T12:01:08.111Z,17.10
2022-12-15T12:04:07.228Z,22.52
2022-12-15T12:07:13.462Z,19.35
2022-12-15T12:10:09.889Z,20.40
2022-12-15T12:13:10.598Z,17.58
2022-12-15T12:16:04.688Z,18.15
2022-12-15T12:19:25.604Z,19.38
2022-12-15T12:22:36.534Z,19.88
2022-12-15T12:25:25.940Z,21.42
2022-12-15T12:28:20.810Z,18.33
2022-12-15T12:31:21.768Z,21.05
2022-12-15T12:34:19.224Z,19.73
2022-12-15T12:37:31.125Z,19.88
2022-12-15T12:40:24.996Z,18.42
2022-12-15T12:43:39.494Z,18.98
2022-12-15T12:46:45.424Z,15.80
2022-12-15T12:49:43.902Z,19.88
2022-12-15T12:52:35.006Z,19.17
2022-12-15T12:58:48.453Z,17.00
2022-12-15T13:01:39.917Z,17.48
2022-12-15T13:04:30.275Z,20.50
2022-12-15T13:07:32.002Z,22.73
2022-12-15T13:10:21.697Z,18.20
2022-12-15T13:13:18.840Z,20.42
2022-12-15T13:16:26.795Z,17.75
2022-12-15T13:19:14.900Z,18.95
2022-12-15T13:22:02.733Z,19.55
2022-12-15T13:24:51.369Z,23.67
2022-12-15T13:27:40.759Z,20.88
2022-12-15T13:30:28.328Z,20.38
2022-12-15T13:33:19.631Z,19.15
2022-12-15T13:38:56.468Z,20.67
2022-12-15T13:45:14.074Z,17.75
2022-12-15T13:48:12.294Z,17.08
2022-12-15T13:51:21.610Z,19.15
2022-12-15T13:54:10.141Z,19.63
2022-12-15T13:57:14.534Z,18.25
2022-12-15T14:00:19.272Z,21.23
2022-12-15T14:03:12.017Z,18.17
2022-12-15T14:06:00.267Z,22.88
2022-12-15T14:08:50.831Z,19.42
2022-12-15T14:11:54.763Z,17.55
2022-12-15T14:14:49.584Z,15.98
2022-12-15T14:17:36.986Z,17.10
2022-12-15T14:20:29.152Z,18.40
2022-12-15T14:23:21.886Z,17.65
2022-12-15T14:26:12.187Z,20.05
2022-12-15T14:29:05.679Z,20.00
2022-12-15T14:31:58.156Z,19.05
2022-12-15T14:34:50.576Z,18.75
2022-12-15T14:37:38.195Z,19.85
2022-12-15T14:43:39.013Z,20.10
2022-12-15T14:46:28.342Z,19.42
2022-12-15T14:49:31.671Z,21.25
2022-12-15T14:52:25.006Z,14.02
2022-12-15T14:55:21.351Z,19.02
2022-12-15T14:58:32.318Z,19.70
2022-12-15T15:01:24.181Z,19.25
2022-12-15T15:03:07.530Z,21.75
2022-12-15T15:04:31.590Z,24.45
2022-12-15T15:07:19.442Z,23.45
2022-12-15T15:10:22.160Z,19.75
2022-12-15T15:13:26.433Z,24.27
2022-12-15T15:16:17.427Z,24.70
2022-12-15T15:19:05.649Z,22.80
2022-12-15T15:21:53.123Z,21.85
2022-12-15T15:24:41.001Z,22.42
2022-12-15T15:27:39.960Z,18.25
2022-12-15T15:30:27.234Z,21.58
2022-12-15T15:33:14.793Z,26.52
2022-12-15T15:36:03.002Z,23.25
2022-12-15T15:38:52.156Z,21.35
2022-12-15T15:41:39.734Z,24.17
2022-12-15T15:44:27.745Z,22.70
2022-12-15T15:47:25.155Z,23.45
2022-12-15T15:50:15.853Z,22.02
2022-12-15T15:53:04.301Z,25.40
2022-12-15T15:55:53.337Z,24.85
2022-12-15T15:58:41.185Z,18.65
2022-12-15T16:01:30.487Z,22.15
2022-12-15T16:04:17.693Z,22.75
2022-12-15T16:07:05.312Z,26.67
2022-12-15T16:09:53.895Z,22.40
2022-12-15T16:12:45.302Z,25.33
2022-12-15T16:15:32.692Z,21.45
2022-12-15T16:18:20.612Z,20.92
2022-12-15T16:21:12.693Z,24.60
2022-12-15T16:24:00.636Z,21.60
2022-12-15T16:26:50.561Z,21.52
2022-12-15T16:29:38.411Z,22.30
2022-12-15T16:32:26.180Z,18.42
2022-12-15T16:35:13.545Z,21.80
2022-12-15T16:38:03.970Z,21.05
2022-12-15T16:40:51.589Z,19.67
2022-12-15T16:43:44.524Z,21.48
2022-12-15T16:46:36.230Z,22.17
2022-12-15T16:49:23.444Z,19.85
2022-12-15T16:52:21.065Z,25.35
2022-12-15T16:55:16.890Z,24.05
2022-12-15T16:58:06.798Z,19.00
2022-12-15T17:00:54.509Z,23.73
2022-12-15T17:03:43.041Z,24.23
2022-12-15T17:06:30.364Z,21.20
2022-12-15T17:09:22.441Z,26.92
2022-12-15T17:12:17.596Z,25.70
2022-12-15T17:15:18.434Z,23.00
2022-12-15T17:18:05.990Z,22.33
2022-12-15T17:21:18.116Z,23.30
2022-12-15T17:24:09.064Z,24.23
2022-12-15T17:26:56.259Z,26.75
2022-12-15T17:29:44.756Z,23.92
2022-12-15T17:32:31.965Z,25.08
2022-12-15T17:35:19.409Z,24.55
2022-12-15T17:38:09.122Z,22.60
2022-12-15T17:40:57.357Z,26.65
2022-12-15T17:43:45.429Z,20.60
2022-12-15T17:46:32.730Z,24.67
2022-12-15T17:49:21.555Z,17.70
2022-12-15T17:52:29.172Z,22.27
2022-12-15T17:55:34.604Z,22.60
2022-12-15T17:58:25.307Z,21.33
2022-12-15T18:01:13.884Z,29.88
2022-12-15T18:04:01.113Z,29.70
2022-12-15T18:06:48.387Z,22.15
2022-12-15T18:09:35.627Z,23.15
2022-12-15T18:12:26.204Z,24.77
2022-12-15T18:15:23.016Z,24.35
2022-12-15T18:18:11.254Z,20.77
2022-12-15T18:21:08.215Z,23.40
2022-12-15T18:23:55.528Z,24.20
2022-12-15T18:26:43.472Z,21.63
2022-12-15T18:29:30.707Z,22.95
2022-12-15T18:32:19.279Z,25.42
2022-12-15T18:35:22.590Z,23.73
2022-12-15T18:38:17.283Z,22.25
2022-12-15T18:41:04.613Z,29.27
2022-12-15T18:43:51.801Z,21.73
2022-12-15T18:46:42.048Z,24.27
2022-12-15T18:49:33.574Z,21.27
2022-12-15T18:52:23.473Z,22.05
2022-12-15T18:55:21.320Z,18.75
2022-12-15T18:58:21.075Z,18.08
2022-12-15T19:01:09.274Z,20.00
2022-12-15T19:03:56.480Z,19.85
2022-12-15T19:06:44.774Z,18.17
2022-12-15T19:09:32.257Z,15.05
2022-12-15T19:12:19.427Z,20.27
2022-12-15T19:15:09.974Z,17.17
2022-12-15T19:18:15.792Z,17.73
2022-12-15T19:21:34.202Z,18.20
2022-12-15T19:24:46.466Z,16.55
2022-12-15T19:27:33.869Z,17.42
2022-12-15T19:30:22.050Z,18.05
2022-12-15T19:33:11.234Z,19.15
2022-12-15T19:35:58.773Z,17.45
2022-12-15T19:38:46.613Z,16.75
2022-12-15T19:41:36.281Z,21.48
2022-12-15T19:44:26.234Z,18.15
2022-12-15T19:47:13.676Z,17.88
2022-12-15T19:50:00.773Z,18.60
2022-12-15T19:52:51.731Z,16.10
2022-12-15T19:55:39.709Z,17.80
2022-12-15T19:58:31.364Z,20.30
2022-12-15T20:01:20.990Z,18.90
2022-12-15T20:04:08.341Z,21.52
2022-12-15T20:06:55.671Z,18.80
2022-12-15T20:09:42.810Z,20.35
2022-12-15T20:12:29.936Z,18.77
2022-12-15T20:15:20.535Z,20.08
2022-12-15T20:18:08.071Z,19.75
2022-12-15T20:20:55.683Z,21.98
2022-12-15T20:23:50.964Z,22.05
2022-12-15T20:26:39.312Z,20.42
2022-12-15T20:29:31.833Z,18.58
2022-12-15T20:32:21.151Z,17.13
2022-12-15T20:35:08.291Z,18.15
2022-12-15T20:37:55.438Z,19.45
2022-12-15T20:40:42.820Z,22.48
2022-12-15T20:43:32.387Z,19.65
2022-12-15T20:46:22.796Z,18.45
2022-12-15T20:49:18.849Z,17.33
2022-12-15T20:52:06.266Z,20.08
2022-12-15T20:54:54.676Z,19.67
2022-12-15T20:57:41.839Z,18.35
2022-12-15T21:00:29.004Z,17.02
2022-12-15T21:03:23.731Z,21.00
2022-12-15T21:06:11.183Z,17.65
2022-12-15T21:08:58.513Z,17.92
2022-12-15T21:11:48.282Z,18.85
2022-12-15T21:14:35.397Z,17.33
2022-12-15T21:17:25.809Z,19.50
2022-12-15T21:20:14.017Z,18.98
2022-12-15T21:23:01.419Z,18.73
2022-12-15T21:25:49.208Z,19.75
2022-12-15T21:28:37.506Z,19.58
2022-12-15T21:31:25.583Z,21.35
2022-12-15T21:34:13.504Z,19.05
2022-12-15T21:37:03.385Z,19.63
2022-12-15T21:39:50.808Z,20.23
2022-12-15T21:42:38.284Z,20.27
2022-12-15T21:45:26.573Z,19.65
2022-12-15T21:48:32.896Z,18.17
2022-12-15T21:51:20.398Z,17.50
2022-12-15T21:54:24.720Z,20.23
2022-12-15T21:57:14.632Z,20.55
2022-12-15T22:00:01.917Z,18.20
2022-12-15T22:02:59.054Z,19.52
2022-12-15T22:05:46.207Z,19.17
2022-12-15T22:08:33.731Z,20.88
2022-12-15T22:11:28.518Z,22.10
2022-12-15T22:14:28.488Z,19.20
2022-12-15T22:17:22.852Z,20.67
2022-12-15T22:20:21.660Z,21.38
2022-12-15T22:23:08.758Z,22.50
2022-12-15T22:25:56.265Z,26.85
2022-12-15T22:28:43.345Z,19.83
2022-12-15T22:31:30.439Z,19.05
2022-12-15T22:34:20.271Z,19.17
2022-12-15T22:37:07.558Z,23.85
2022-12-15T22:39:55.356Z,16.00
2022-12-15T22:42:46.488Z,17.80
2022-12-15T22:48:26.294Z,16.23
2022-12-15T22:51:16.018Z,15.80
2022-12-15T22:54:08.682Z,20.77
2022-12-15T22:57:05.421Z,21.17
2022-12-15T23:00:02.922Z,17.30
2022-12-15T23:02:50.166Z,23.40
2022-12-15T23:05:41.582Z,19.52
2022-12-15T23:08:30.101Z,20.98
2022-12-15T23:11:37.092Z,17.92
2022-12-15T23:14:44.135Z,22.58
2022-12-15T23:17:31.259Z,27.00
2022-12-15T23:20:18.383Z,16.30
2022-12-15T23:23:05.717Z,23.30
2022-12-15T23:25:53.005Z,24.90
2022-12-15T23:28:41.325Z,19.63
2022-12-15T23:31:28.900Z,23.88
2022-12-15T23:34:16.150Z,30.58
2022-12-15T23:37:03.259Z,24.05
2022-12-15T23:39:50.283Z,25.23
2022-12-15T23:42:38.865Z,31.25
2022-12-15T23:45:26.064Z,22.92
2022-12-15T23:48:15.007Z,22.45
2022-12-15T23:51:04.735Z,27.38
2022-12-15T23:53:51.850Z,29.50
2022-12-15T23:56:39.454Z,26.30
2022-12-15T23:59:26.497Z,26.58
